Time;durP1;ratioP1;P1;durP2;ratioP2;P2;SDS_P1;SDS_P2;PMS_P1;PMS_P2;Temp;Humidity;BMP_temperature;BMP_pressure;BME280_temperature;BME280_humidity;BME280_pressure;Samples;Min_cycle;Max_cycle;Signal;HPM_P1;HPM_P2
2022/02/23 00:00:31;;;;;;;2.10;0.80;;;8.40;99.90;;;;;;4990681;28;20451;-72
2022/02/23 00:02:59;;;;;;;2.47;0.70;;;8.50;99.90;;;;;;4990673;28;20458;-75
2022/02/23 00:05:26;;;;;;;1.80;0.80;;;8.50;99.90;;;;;;4990405;28;20478;-73
2022/02/23 00:07:53;;;;;;;1.80;0.60;;;8.50;99.90;;;;;;4990747;28;21021;-73
2022/02/23 00:10:20;;;;;;;2.33;0.80;;;8.50;99.90;;;;;;4990795;28;20465;-73
2022/02/23 00:12:46;;;;;;;2.43;0.97;;;8.50;99.90;;;;;;4990690;28;20545;-73
2022/02/23 00:15:13;;;;;;;2.60;0.80;;;8.60;99.90;;;;;;4990108;28;21108;-72
2022/02/23 00:17:40;;;;;;;2.87;0.90;;;8.60;99.90;;;;;;4990417;28;20450;-75
2022/02/23 00:20:10;;;;;;;3.07;1.17;;;8.50;99.90;;;;;;4990561;28;20455;-73
2022/02/23 00:22:37;;;;;;;2.83;1.63;;;8.60;99.90;;;;;;4990564;28;20530;-74
2022/02/23 00:25:05;;;;;;;3.20;0.90;;;8.60;99.90;;;;;;4990385;28;20566;-73
2022/02/23 00:27:32;;;;;;;3.00;0.80;;;8.60;99.90;;;;;;4990217;28;20490;-72
2022/02/23 00:29:58;;;;;;;2.80;0.90;;;8.60;99.90;;;;;;4991368;28;20446;-75
2022/02/23 00:32:25;;;;;;;3.30;0.90;;;8.60;99.90;;;;;;4994471;28;20443;-73
2022/02/23 00:34:52;;;;;;;1.90;0.83;;;8.60;99.90;;;;;;4993975;28;20493;-73
2022/02/23 00:37:20;;;;;;;3.83;1.10;;;8.50;99.90;;;;;;4994093;28;20501;-73
2022/02/23 00:39:47;;;;;;;2.30;1.10;;;8.50;99.90;;;;;;4994243;28;20446;-73
2022/02/23 00:42:14;;;;;;;1.80;0.73;;;8.50;99.90;;;;;;4994098;28;20541;-73
2022/02/23 00:44:41;;;;;;;1.80;0.70;;;8.50;99.90;;;;;;4993634;28;20455;-74
2022/02/23 00:47:10;;;;;;;2.23;0.60;;;8.50;99.90;;;;;;4994051;28;20486;-73
2022/02/23 00:49:37;;;;;;;2.67;0.90;;;8.50;99.90;;;;;;4994016;28;20462;-73
2022/02/23 00:52:06;;;;;;;3.83;0.80;;;8.60;99.90;;;;;;4993925;28;20468;-73
2022/02/23 00:54:34;;;;;;;4.23;1.10;;;8.60;99.90;;;;;;4993393;28;20456;-73
2022/02/23 00:57:02;;;;;;;2.20;0.73;;;8.60;99.90;;;;;;4993635;28;20469;-73
2022/02/23 00:59:28;;;;;;;3.50;1.10;;;8.70;99.90;;;;;;4994012;28;20541;-73
2022/02/23 01:01:56;;;;;;;1.90;0.87;;;8.70;99.90;;;;;;4994125;28;20457;-74
2022/02/23 01:04:23;;;;;;;3.43;0.90;;;8.80;99.90;;;;;;4993388;28;21084;-73
2022/02/23 01:06:49;;;;;;;3.20;0.80;;;8.80;99.90;;;;;;4993566;28;20490;-73
2022/02/23 01:09:16;;;;;;;2.03;0.90;;;8.80;99.90;;;;;;4993700;28;20450;-73
2022/02/23 01:11:44;;;;;;;2.47;1.00;;;8.80;99.90;;;;;;4993697;28;20450;-73
2022/02/23 01:14:12;;;;;;;1.97;0.90;;;8.80;99.90;;;;;;4993229;28;20464;-73
2022/02/23 01:16:39;;;;;;;1.70;0.83;;;8.80;99.90;;;;;;4993563;28;20545;-74
2022/02/23 01:19:07;;;;;;;2.20;1.10;;;8.80;99.90;;;;;;4993484;28;20465;-73
2022/02/23 01:21:33;;;;;;;2.83;1.30;;;8.80;99.90;;;;;;4993438;28;20537;-73
2022/02/23 01:24:00;;;;;;;3.43;1.20;;;8.80;99.90;;;;;;4993634;28;20454;-73
2022/02/23 01:26:27;;;;;;;2.23;0.80;;;8.80;99.90;;;;;;4993644;28;20578;-72
2022/02/23 01:28:55;;;;;;;1.80;0.73;;;8.80;99.90;;;;;;4993620;28;20455;-75
2022/02/23 01:31:22;;;;;;;3.17;0.90;;;8.80;99.90;;;;;;4993553;28;20526;-74
2022/02/23 01:33:49;;;;;;;2.67;1.00;;;8.80;99.90;;;;;;4993267;28;20815;-73
2022/02/23 01:36:16;;;;;;;2.47;1.37;;;8.90;99.90;;;;;;4993181;28;20475;-75
2022/02/23 01:38:43;;;;;;;3.40;0.90;;;8.90;99.90;;;;;;4993106;28;20991;-72
2022/02/23 01:41:10;;;;;;;3.00;1.57;;;8.70;99.90;;;;;;4992182;28;20447;-72
2022/02/23 01:43:37;;;;;;;2.83;1.43;;;7.80;99.90;;;;;;4993041;28;20509;-73
2022/02/23 01:46:06;;;;;;;17.73;1.80;;;6.90;99.90;;;;;;4992598;28;20977;-74
2022/02/23 01:48:33;;;;;;;3.27;1.17;;;6.50;99.90;;;;;;4992865;28;20493;-73
2022/02/23 01:51:00;;;;;;;4.37;1.30;;;6.30;99.90;;;;;;4992977;28;20902;-73
2022/02/23 01:53:26;;;;;;;4.33;1.20;;;6.10;99.90;;;;;;4992804;28;20455;-74
2022/02/23 01:55:53;;;;;;;4.27;1.90;;;6.10;99.90;;;;;;4992464;28;20549;-74
2022/02/23 01:58:20;;;;;;;5.83;2.10;;;6.00;99.90;;;;;;4992799;28;20960;-73
2022/02/23 02:00:47;;;;;;;5.10;1.77;;;6.00;99.90;;;;;;4993089;28;20461;-76
2022/02/23 02:03:15;;;;;;;5.57;1.23;;;5.90;99.90;;;;;;4992780;28;20454;-73
2022/02/23 02:05:43;;;;;;;5.30;1.77;;;5.90;99.90;;;;;;4992504;28;20859;-73
2022/02/23 02:08:10;;;;;;;3.27;1.40;;;5.90;99.90;;;;;;4992685;28;21067;-72
2022/02/23 02:10:37;;;;;;;7.30;1.83;;;5.90;99.90;;;;;;4992798;28;20455;-73
2022/02/23 02:13:04;;;;;;;4.80;1.53;;;5.90;99.90;;;;;;4992276;28;20542;-74
2022/02/23 02:15:31;;;;;;;5.97;2.50;;;5.90;99.90;;;;;;4992169;28;20506;-72
2022/02/23 02:17:58;;;;;;;8.57;2.63;;;5.90;99.90;;;;;;4992586;28;20450;-77
2022/02/23 02:20:26;;;;;;;6.70;1.50;;;5.90;99.90;;;;;;4992662;28;20453;-73
2022/02/23 02:22:54;;;;;;;4.77;1.83;;;5.90;99.90;;;;;;4992460;28;20450;-73
2022/02/23 02:25:21;;;;;;;4.17;1.10;;;6.00;99.90;;;;;;4991953;28;20463;-73
2022/02/23 02:27:48;;;;;;;5.47;1.40;;;6.00;99.90;;;;;;4992053;28;20479;-73
2022/02/23 02:30:15;;;;;;;5.83;3.13;;;6.10;99.90;;;;;;4992254;28;20486;-73
2022/02/23 02:32:42;;;;;;;10.17;1.80;;;6.10;99.90;;;;;;4991994;28;20455;-73
2022/02/23 02:35:09;;;;;;;8.50;1.70;;;6.10;99.90;;;;;;4991590;28;20553;-73
2022/02/23 02:37:36;;;;;;;4.00;1.67;;;6.10;99.90;;;;;;4992147;28;20534;-74
2022/02/23 02:40:05;;;;;;;11.53;1.73;;;6.20;99.90;;;;;;4991796;28;20446;-74
2022/02/23 02:42:32;;;;;;;5.17;1.33;;;6.10;99.90;;;;;;4991676;28;20557;-74
2022/02/23 02:44:59;;;;;;;6.20;1.90;;;6.10;99.90;;;;;;4991656;28;20533;-74
2022/02/23 02:47:26;;;;;;;3.70;1.53;;;6.10;99.90;;;;;;4991908;28;20589;-73
2022/02/23 02:49:53;;;;;;;5.67;2.20;;;6.20;99.90;;;;;;4991742;28;20546;-73
2022/02/23 02:52:19;;;;;;;5.60;1.47;;;6.10;99.90;;;;;;4991659;28;20442;-74
2022/02/23 02:54:46;;;;;;;6.60;1.60;;;6.10;99.90;;;;;;4991293;28;20462;-74
2022/02/23 02:57:14;;;;;;;6.90;1.60;;;6.20;99.90;;;;;;4991659;28;20458;-73
2022/02/23 02:59:41;;;;;;;7.30;2.07;;;6.20;99.90;;;;;;4991931;28;20550;-73
2022/02/23 03:02:08;;;;;;;8.33;1.87;;;6.20;99.90;;;;;;4991623;28;20457;-74
2022/02/23 03:04:35;;;;;;;3.40;1.40;;;6.20;99.90;;;;;;4991182;28;20447;-74
2022/02/23 03:07:02;;;;;;;7.47;1.73;;;6.20;99.90;;;;;;4991483;28;20467;-73
2022/02/23 03:09:28;;;;;;;9.27;2.10;;;6.20;99.90;;;;;;4991448;28;20465;-73
2022/02/23 03:11:55;;;;;;;6.10;1.77;;;6.20;99.90;;;;;;4991362;28;20451;-73
2022/02/23 03:14:24;;;;;;;8.87;1.70;;;6.20;99.90;;;;;;4991060;28;21096;-74
2022/02/23 03:16:51;;;;;;;9.50;2.23;;;6.20;99.90;;;;;;4991275;28;20467;-74
2022/02/23 03:19:17;;;;;;;5.40;1.80;;;6.20;99.90;;;;;;4993807;28;20469;-73
2022/02/23 03:21:44;;;;;;;8.10;2.20;;;6.20;99.90;;;;;;4997459;28;20453;-72
2022/02/23 03:24:11;;;;;;;6.20;2.00;;;6.30;99.90;;;;;;4995871;28;20482;-74
2022/02/23 03:26:38;;;;;;;5.00;1.80;;;6.30;99.90;;;;;;4993820;28;20537;-74
2022/02/23 03:29:05;;;;;;;6.47;1.70;;;6.20;99.90;;;;;;4991226;28;20577;-73
2022/02/23 03:31:33;;;;;;;6.20;2.17;;;6.20;99.90;;;;;;4991292;28;20902;-73
2022/02/23 03:34:00;;;;;;;6.57;1.90;;;6.20;99.90;;;;;;4991070;28;20554;-73
2022/02/23 03:36:27;;;;;;;7.50;2.20;;;6.20;99.90;;;;;;4990616;28;20555;-73
2022/02/23 03:38:54;;;;;;;8.93;2.33;;;6.20;99.90;;;;;;4990705;28;20534;-74
2022/02/23 03:41:21;;;;;;;5.07;1.80;;;6.10;99.90;;;;;;4991097;28;20458;-73
2022/02/23 03:43:47;;;;;;;3.93;1.67;;;6.10;99.90;;;;;;4990794;28;20455;-75
2022/02/23 03:46:14;;;;;;;6.23;1.83;;;6.00;99.90;;;;;;4990512;28;20473;-74
2022/02/23 03:48:43;;;;;;;6.27;1.93;;;5.90;99.90;;;;;;4990784;28;20478;-73
2022/02/23 03:51:10;;;;;;;3.30;1.73;;;5.80;99.90;;;;;;4990834;28;20455;-73
2022/02/23 03:53:36;;;;;;;5.60;1.70;;;5.80;99.90;;;;;;4990944;28;20454;-75
2022/02/23 03:56:05;;;;;;;4.60;1.90;;;5.70;99.90;;;;;;4990807;28;20466;-73
2022/02/23 03:58:32;;;;;;;4.60;1.83;;;5.70;99.90;;;;;;4990900;28;20983;-76
2022/02/23 04:00:59;;;;;;;8.43;2.87;;;5.70;99.90;;;;;;4990780;28;20928;-73
2022/02/23 04:03:26;;;;;;;7.17;3.20;;;5.80;99.90;;;;;;4990761;28;20458;-73
2022/02/23 04:05:54;;;;;;;5.90;2.53;;;5.80;99.90;;;;;;4989681;28;20574;-75
2022/02/23 04:08:20;;;;;;;15.03;3.20;;;5.80;99.90;;;;;;4990665;28;20844;-75
2022/02/23 04:10:47;;;;;;;10.70;2.87;;;5.80;99.90;;;;;;4990636;28;20457;-73
2022/02/23 04:13:14;;;;;;;9.20;3.10;;;5.90;99.90;;;;;;4990455;28;21029;-73
2022/02/23 04:15:41;;;;;;;9.83;2.70;;;6.00;99.90;;;;;;4990563;28;21059;-74
2022/02/23 04:18:08;;;;;;;5.30;2.17;;;6.00;99.90;;;;;;4990649;28;20458;-73
2022/02/23 04:20:36;;;;;;;4.93;2.23;;;6.10;99.90;;;;;;4990288;28;20481;-74
2022/02/23 04:23:04;;;;;;;7.33;2.20;;;6.10;99.90;;;;;;4990500;28;20914;-73
2022/02/23 04:25:31;;;;;;;11.70;3.20;;;6.00;99.90;;;;;;4990012;28;20565;-75
2022/02/23 04:27:58;;;;;;;6.17;2.40;;;6.00;99.90;;;;;;4990398;28;20856;-74
2022/02/23 04:30:25;;;;;;;10.80;2.60;;;6.00;99.90;;;;;;4990402;28;20449;-75
2022/02/23 04:32:52;;;;;;;9.17;2.43;;;6.00;99.90;;;;;;4990204;28;20486;-74
2022/02/23 04:35:19;;;;;;;8.60;3.10;;;6.00;99.90;;;;;;4989898;28;20545;-73
2022/02/23 04:37:46;;;;;;;10.07;2.63;;;5.90;99.90;;;;;;4990346;28;20447;-73
2022/02/23 04:40:14;;;;;;;9.40;2.97;;;5.90;99.90;;;;;;4990300;28;20554;-73
2022/02/23 04:42:41;;;;;;;11.80;2.37;;;5.90;99.90;;;;;;4990267;28;20533;-74
2022/02/23 04:45:08;;;;;;;6.23;2.70;;;5.80;99.90;;;;;;4989804;28;20474;-74
2022/02/23 04:47:35;;;;;;;9.63;2.93;;;5.80;99.90;;;;;;4990004;28;20450;-74
2022/02/23 04:50:02;;;;;;;9.03;2.67;;;5.80;99.90;;;;;;4990395;28;20447;-74
2022/02/23 04:52:29;;;;;;;11.23;3.13;;;5.70;99.90;;;;;;4990051;28;20538;-74
2022/02/23 04:54:55;;;;;;;8.27;3.10;;;5.70;99.90;;;;;;4989784;28;20505;-75
2022/02/23 04:57:24;;;;;;;10.57;2.80;;;5.70;99.90;;;;;;4990229;28;20539;-73
2022/02/23 04:59:51;;;;;;;11.10;2.63;;;5.60;99.90;;;;;;4990177;28;20443;-76
2022/02/23 05:02:19;;;;;;;8.80;2.70;;;5.60;99.90;;;;;;4989838;28;20455;-74
2022/02/23 05:04:46;;;;;;;9.17;2.63;;;5.50;99.90;;;;;;4989814;28;20446;-73
2022/02/23 05:07:14;;;;;;;12.30;3.53;;;5.50;99.90;;;;;;4990003;28;20465;-73
2022/02/23 05:09:41;;;;;;;6.93;3.60;;;5.50;99.90;;;;;;4990315;28;20688;-73
2022/02/23 05:12:09;;;;;;;9.00;3.30;;;5.50;99.90;;;;;;4989991;28;20455;-73
2022/02/23 05:14:38;;;;;;;4.60;2.87;;;5.50;99.90;;;;;;4989362;28;20457;-75
2022/02/23 05:17:05;;;;;;;6.80;3.40;;;5.40;99.90;;;;;;4991035;28;20971;-73
2022/02/23 05:19:34;;;;;;;8.80;3.00;;;5.40;99.90;;;;;;4993724;28;20446;-73
2022/02/23 05:22:01;;;;;;;7.70;3.50;;;5.30;99.90;;;;;;4993269;28;20461;-73
2022/02/23 05:24:33;;;;;;;11.43;3.03;;;5.30;99.90;;;;;;4993075;28;20459;-74
2022/02/23 05:27:00;;;;;;;8.67;3.33;;;5.20;99.90;;;;;;4993541;28;20450;-73
2022/02/23 05:29:27;;;;;;;13.03;3.40;;;5.20;99.90;;;;;;4993329;28;20482;-73
2022/02/23 05:31:55;;;;;;;7.07;4.87;;;5.30;99.90;;;;;;4993486;28;20451;-72
2022/02/23 05:34:22;;;;;;;9.40;3.57;;;5.30;99.90;;;;;;4993133;28;20450;-72
2022/02/23 05:36:49;;;;;;;9.37;4.77;;;5.30;99.90;;;;;;4993262;28;20475;-74
2022/02/23 05:39:15;;;;;;;5.40;2.60;;;5.20;99.90;;;;;;4993418;28;20443;-72
2022/02/23 05:41:42;;;;;;;6.43;3.93;;;5.20;99.90;;;;;;4993317;28;20456;-74
2022/02/23 05:44:10;;;;;;;8.73;3.50;;;5.10;99.90;;;;;;4995610;28;20461;-73
2022/02/23 05:46:37;;;;;;;8.23;4.20;;;5.20;99.90;;;;;;5013251;28;20472;-73
2022/02/23 05:49:05;;;;;;;10.20;5.53;;;5.20;99.90;;;;;;5014783;28;20473;-73
2022/02/23 05:51:34;;;;;;;13.20;4.77;;;5.20;99.90;;;;;;5012558;28;20445;-73
2022/02/23 05:54:02;;;;;;;10.67;5.43;;;5.20;99.90;;;;;;5012475;28;20438;-73
2022/02/23 05:56:29;;;;;;;10.37;5.20;;;5.20;99.90;;;;;;5012382;28;20484;-72
2022/02/23 05:58:57;;;;;;;10.00;6.10;;;5.30;99.90;;;;;;5012436;28;20450;-71
2022/02/23 06:01:24;;;;;;;14.97;6.23;;;5.30;99.90;;;;;;5012329;28;20449;-76
2022/02/23 06:03:51;;;;;;;10.47;5.50;;;5.30;99.90;;;;;;5012133;28;20948;-73
2022/02/23 06:06:19;;;;;;;13.40;5.97;;;5.30;99.90;;;;;;5009995;28;20470;-74
2022/02/23 06:08:46;;;;;;;11.10;6.13;;;5.30;99.90;;;;;;5005329;28;20518;-73
2022/02/23 06:11:14;;;;;;;11.27;5.50;;;5.30;99.90;;;;;;5012435;28;20452;-74
2022/02/23 06:13:41;;;;;;;12.23;6.20;;;5.40;99.90;;;;;;5015543;28;20465;-74
2022/02/23 06:16:08;;;;;;;15.00;6.57;;;5.50;99.90;;;;;;5012395;28;20470;-74
2022/02/23 06:18:35;;;;;;;15.33;6.37;;;5.50;99.90;;;;;;5006244;28;20438;-74
2022/02/23 06:21:02;;;;;;;12.93;5.50;;;5.50;99.90;;;;;;5002005;28;20471;-73
2022/02/23 06:23:30;;;;;;;9.80;6.70;;;5.70;99.90;;;;;;5005750;28;20456;-73
2022/02/23 06:25:57;;;;;;;12.70;5.73;;;5.70;99.90;;;;;;5008421;28;20470;-74
2022/02/23 06:28:23;;;;;;;11.63;6.60;;;5.70;99.90;;;;;;5011423;28;20545;-73
2022/02/23 06:30:50;;;;;;;11.30;5.40;;;5.70;99.90;;;;;;5008504;28;20454;-74
2022/02/23 06:33:22;;;;;;;12.30;6.50;;;5.70;99.90;;;;;;5010350;28;20453;-74
2022/02/23 06:35:50;;;;;;;12.50;6.00;;;5.70;99.90;;;;;;5013377;28;20502;-74
2022/02/23 06:38:17;;;;;;;12.00;6.23;;;5.60;99.90;;;;;;5011676;28;20450;-73
2022/02/23 06:40:46;;;;;;;14.47;7.30;;;5.70;99.90;;;;;;5011562;28;20438;-74
2022/02/23 06:43:15;;;;;;;13.30;6.07;;;5.60;99.90;;;;;;5011499;28;20830;-74
2022/02/23 06:45:42;;;;;;;14.70;5.90;;;5.60;99.90;;;;;;5011008;28;20999;-74
2022/02/23 06:48:09;;;;;;;10.27;6.13;;;5.60;99.90;;;;;;5007943;28;20454;-75
2022/02/23 06:50:36;;;;;;;15.97;6.60;;;5.60;99.90;;;;;;5012622;28;20481;-72
2022/02/23 06:53:03;;;;;;;10.90;6.53;;;5.70;99.90;;;;;;5011291;28;20456;-73
2022/02/23 06:55:29;;;;;;;8.97;5.37;;;5.70;99.90;;;;;;5010817;28;20473;-74
2022/02/23 06:57:58;;;;;;;11.53;6.00;;;5.70;99.90;;;;;;5011071;28;20484;-76
2022/02/23 07:00:25;;;;;;;12.27;6.43;;;5.60;99.90;;;;;;5011025;28;20481;-75
2022/02/23 07:02:52;;;;;;;14.40;6.70;;;5.60;99.90;;;;;;5010943;28;20500;-74
2022/02/23 07:05:20;;;;;;;11.37;7.07;;;5.50;99.90;;;;;;5010730;28;20512;-73
2022/02/23 07:07:47;;;;;;;10.73;8.17;;;5.50;99.90;;;;;;5010900;28;21021;-73
2022/02/23 07:10:21;;;;;;;11.83;7.27;;;5.60;99.90;;;;;;5011012;28;20568;-74
2022/02/23 07:12:48;;;;;;;13.17;7.33;;;5.60;99.90;;;;;;5010986;28;20452;-73
2022/02/23 07:15:17;;;;;;;11.50;7.10;;;5.70;99.90;;;;;;5010542;28;20577;-74
2022/02/23 07:17:44;;;;;;;11.37;6.23;;;5.80;99.90;;;;;;5010842;28;20449;-73
2022/02/23 07:20:12;;;;;;;14.37;7.03;;;5.80;99.90;;;;;;5011175;28;20450;-74
2022/02/23 07:22:39;;;;;;;12.30;6.50;;;5.80;99.90;;;;;;5011128;28;20445;-73
2022/02/23 07:25:08;;;;;;;12.50;6.83;;;5.70;99.90;;;;;;5010757;28;20555;-74
2022/02/23 07:27:35;;;;;;;18.37;6.53;;;5.70;99.90;;;;;;5011308;28;20920;-73
2022/02/23 07:30:03;;;;;;;13.63;6.47;;;5.70;99.90;;;;;;5010795;28;20485;-74
2022/02/23 07:32:32;;;;;;;12.50;6.83;;;5.70;99.90;;;;;;5010646;28;20932;-74
2022/02/23 07:35:00;;;;;;;16.37;7.67;;;5.70;99.90;;;;;;5010413;28;20528;-74
2022/02/23 07:37:27;;;;;;;13.63;7.60;;;5.70;99.90;;;;;;5010472;28;20497;-74
2022/02/23 07:40:00;;;;;;;10.03;6.83;;;5.80;99.90;;;;;;5009843;28;20442;-74
2022/02/23 07:42:27;;;;;;;10.40;7.03;;;5.90;99.90;;;;;;5010280;28;20865;-74
2022/02/23 07:44:54;;;;;;;18.87;8.70;;;6.00;99.90;;;;;;5009962;28;20553;-74
2022/02/23 07:47:21;;;;;;;14.20;7.80;;;6.10;99.90;;;;;;5010484;28;20472;-74
2022/02/23 07:49:50;;;;;;;14.17;8.53;;;6.30;99.90;;;;;;5010287;28;21167;-74
2022/02/23 07:52:17;;;;;;;13.03;8.23;;;6.40;99.90;;;;;;5010261;28;20469;-74
2022/02/23 07:54:44;;;;;;;17.97;8.00;;;6.50;99.90;;;;;;5009852;28;20913;-74
2022/02/23 07:57:11;;;;;;;19.80;8.93;;;6.60;99.90;;;;;;5010226;28;20537;-74
2022/02/23 07:59:38;;;;;;;20.33;9.70;;;6.80;99.90;;;;;;5010159;28;20438;-74
2022/02/23 08:02:06;;;;;;;15.03;8.60;;;6.90;99.90;;;;;;5010382;28;20457;-76
2022/02/23 08:04:34;;;;;;;18.27;8.93;;;7.00;99.90;;;;;;5009872;28;20458;-74
2022/02/23 08:07:03;;;;;;;12.63;8.60;;;7.10;99.90;;;;;;5010035;28;20501;-74
2022/02/23 08:09:29;;;;;;;16.20;8.53;;;7.20;99.90;;;;;;5009976;28;20578;-75
2022/02/23 08:11:56;;;;;;;12.60;7.63;;;7.20;99.90;;;;;;5009993;28;20568;-73
2022/02/23 08:14:24;;;;;;;12.57;6.90;;;7.30;99.90;;;;;;5009827;28;20450;-74
2022/02/23 08:19:35;;;;;;;15.90;7.30;;;7.40;99.90;;;;;;5010078;28;20476;-74
2022/02/23 08:22:06;;;;;;;11.23;4.73;;;7.40;99.90;;;;;;5010032;28;20485;-74
2022/02/23 08:24:35;;;;;;;9.40;4.70;;;7.30;99.90;;;;;;5009432;28;20456;-74
2022/02/23 08:27:03;;;;;;;13.23;6.37;;;7.30;99.90;;;;;;5010070;28;20461;-73
2022/02/23 08:29:30;;;;;;;11.03;4.70;;;7.20;99.90;;;;;;5009976;28;20915;-74
2022/02/23 08:31:57;;;;;;;11.10;6.00;;;7.20;99.90;;;;;;5010049;28;20464;-73
2022/02/23 08:34:24;;;;;;;6.97;4.50;;;7.00;99.90;;;;;;5009686;28;20454;-73
2022/02/23 08:36:52;;;;;;;10.23;3.97;;;7.00;99.90;;;;;;5009642;28;20471;-75
2022/02/23 08:39:20;;;;;;;17.43;4.80;;;6.90;99.90;;;;;;5009970;28;20450;-73
2022/02/23 08:41:48;;;;;;;9.13;3.63;;;7.00;99.90;;;;;;5009789;28;20456;-74
2022/02/23 08:44:15;;;;;;;8.57;3.60;;;6.90;99.90;;;;;;5009524;28;21106;-73
2022/02/23 08:46:43;;;;;;;11.80;4.77;;;6.90;99.90;;;;;;5009739;28;20473;-76
2022/02/23 08:49:12;;;;;;;7.77;3.60;;;6.90;99.90;;;;;;5009552;28;20485;-73
2022/02/23 08:51:43;;;;;;;8.13;4.60;;;6.90;99.90;;;;;;5011850;28;20544;-73
2022/02/23 08:54:10;;;;;;;7.50;4.33;;;6.90;99.90;;;;;;5013343;28;20454;-76
2022/02/23 08:56:38;;;;;;;13.93;4.80;;;6.80;99.90;;;;;;5013482;28;20580;-76
2022/02/23 08:59:06;;;;;;;10.10;4.27;;;6.90;99.90;;;;;;5013478;28;20457;-75
2022/02/23 09:01:33;;;;;;;6.10;4.13;;;6.90;99.90;;;;;;5013313;28;20438;-75
2022/02/23 09:04:02;;;;;;;9.27;4.63;;;6.90;99.90;;;;;;5013510;28;20531;-75
2022/02/23 09:06:29;;;;;;;17.80;4.73;;;7.00;99.90;;;;;;5013447;28;20483;-76
2022/02/23 09:08:56;;;;;;;7.43;4.70;;;6.90;99.90;;;;;;5013570;28;20450;-76
2022/02/23 09:11:23;;;;;;;9.43;4.33;;;7.00;99.90;;;;;;5013506;28;20445;-76
2022/02/23 09:13:51;;;;;;;6.27;3.63;;;7.00;99.90;;;;;;5013477;28;20457;-76
2022/02/23 09:16:19;;;;;;;4.27;2.77;;;7.20;99.90;;;;;;5012876;28;21046;-75
2022/02/23 09:18:46;;;;;;;9.77;3.53;;;7.30;99.90;;;;;;5013396;28;20449;-75
2022/02/23 09:21:13;;;;;;;7.60;3.60;;;7.40;99.90;;;;;;5013209;28;21094;-77
2022/02/23 09:23:40;;;;;;;5.60;3.37;;;7.40;99.90;;;;;;5013177;28;20467;-76
2022/02/23 09:26:07;;;;;;;5.13;2.90;;;7.40;99.90;;;;;;5012785;28;20573;-75
2022/02/23 09:28:34;;;;;;;6.33;2.93;;;7.50;99.90;;;;;;5012874;28;20460;-75
2022/02/23 09:31:05;;;;;;;5.57;2.73;;;7.50;99.90;;;;;;5012682;28;20485;-77
2022/02/23 09:33:32;;;;;;;5.83;3.27;;;7.40;99.90;;;;;;5012743;28;20464;-76
2022/02/23 09:36:02;;;;;;;3.80;2.53;;;7.40;99.90;;;;;;5012598;28;20552;-75
2022/02/23 09:38:30;;;;;;;7.00;3.50;;;7.30;99.90;;;;;;5012644;28;20581;-76
2022/02/23 09:40:59;;;;;;;5.20;2.87;;;7.40;99.90;;;;;;5012664;28;20511;-76
2022/02/23 09:43:27;;;;;;;4.77;2.80;;;7.40;99.90;;;;;;5012568;28;20548;-75
2022/02/23 09:45:56;;;;;;;5.10;2.40;;;7.40;99.90;;;;;;5012389;28;20466;-75
2022/02/23 09:48:25;;;;;;;5.70;3.10;;;7.50;99.90;;;;;;5012625;28;20552;-76
2022/02/23 09:50:53;;;;;;;7.60;3.23;;;7.60;99.90;;;;;;5012379;28;20508;-76
2022/02/23 09:53:21;;;;;;;7.33;3.17;;;7.70;99.90;;;;;;5012334;28;20482;-75
2022/02/23 09:55:48;;;;;;;8.63;3.10;;;7.70;99.90;;;;;;5012094;28;20501;-75
2022/02/23 09:58:18;;;;;;;7.67;3.17;;;7.60;99.90;;;;;;5012517;28;20452;-76
2022/02/23 10:00:46;;;;;;;5.70;3.23;;;7.70;99.90;;;;;;5012385;28;20452;-75
2022/02/23 10:03:13;;;;;;;4.53;2.43;;;7.80;99.90;;;;;;5011470;28;20453;-76
2022/02/23 10:05:43;;;;;;;4.53;2.33;;;7.80;99.90;;;;;;5011787;28;20560;-76
2022/02/23 10:08:11;;;;;;;7.30;2.30;;;7.80;99.90;;;;;;5012239;28;20454;-76
2022/02/23 10:10:39;;;;;;;5.63;2.57;;;7.80;99.90;;;;;;5011877;28;20473;-75
2022/02/23 10:13:07;;;;;;;6.03;2.50;;;7.90;99.90;;;;;;5012246;28;20546;-77
2022/02/23 10:15:39;;;;;;;5.90;2.57;;;7.90;99.90;;;;;;5011693;28;20507;-76
2022/02/23 10:18:08;;;;;;;5.37;2.20;;;7.90;99.90;;;;;;5011999;28;20536;-76
2022/02/23 10:20:38;;;;;;;7.80;2.57;;;7.90;99.90;;;;;;5011809;28;20446;-75
2022/02/23 10:23:15;;;;;;;7.70;2.47;;;8.00;99.90;;;;;;5011772;28;20458;-76
2022/02/23 10:25:43;;;;;;;5.00;2.33;;;8.10;99.90;;;;;;5011725;28;20477;-75
2022/02/23 10:28:12;;;;;;;9.60;3.20;;;8.30;99.90;;;;;;5011916;28;20822;-76
2022/02/23 10:30:46;;;;;;;6.90;2.00;;;8.40;99.90;;;;;;5011586;28;20865;-75
2022/02/23 10:33:15;;;;;;;4.47;2.10;;;8.50;99.90;;;;;;5011580;28;20541;-76
2022/02/23 10:35:51;;;;;;;5.90;2.27;;;8.60;99.90;;;;;;5011152;28;21017;-75
2022/02/23 10:38:24;;;;;;;3.30;2.40;;;8.80;99.90;;;;;;5011655;28;20477;-76
2022/02/23 10:40:54;;;;;;;9.07;2.33;;;8.90;99.90;;;;;;5011677;28;20437;-75
2022/02/23 10:43:26;;;;;;;3.60;2.07;;;9.10;99.90;;;;;;5011433;28;21043;-77
2022/02/23 10:46:00;;;;;;;3.50;2.30;;;9.10;99.90;;;;;;5011015;28;20480;-76
2022/02/23 10:48:31;;;;;;;5.73;2.43;;;9.00;99.90;;;;;;5011478;28;20459;-77
2022/02/23 10:50:58;;;;;;;6.20;2.10;;;9.00;99.90;;;;;;5011321;28;21021;-76
2022/02/23 10:53:28;;;;;;;5.33;2.00;;;9.10;99.90;;;;;;5011606;28;20516;-75
2022/02/23 10:55:56;;;;;;;4.87;2.10;;;9.20;99.90;;;;;;5011151;28;20468;-77
2022/02/23 10:58:26;;;;;;;8.67;2.63;;;9.40;99.90;;;;;;5011376;28;20446;-75
2022/02/23 11:00:55;;;;;;;5.77;2.20;;;9.50;99.90;;;;;;5011827;28;20442;-76
2022/02/23 11:03:23;;;;;;;8.17;2.60;;;9.60;99.90;;;;;;5011281;28;20461;-75
2022/02/23 11:05:51;;;;;;;7.17;2.70;;;9.80;99.90;;;;;;5010847;28;20500;-76
2022/02/23 11:08:21;;;;;;;5.60;2.10;;;9.90;99.90;;;;;;5011271;28;20449;-75
2022/02/23 11:10:50;;;;;;;15.67;3.27;;;9.90;99.90;;;;;;5010883;28;20564;-76
2022/02/23 11:13:17;;;;;;;5.20;2.20;;;9.80;99.90;;;;;;5011182;28;20445;-74
2022/02/23 11:15:46;;;;;;;4.83;2.13;;;9.90;99.90;;;;;;5009751;28;20472;-75
2022/02/23 11:18:15;;;;;;;5.83;2.10;;;9.90;99.90;;;;;;5011060;28;20453;-75
2022/02/23 11:20:44;;;;;;;6.73;2.63;;;10.10;99.90;;;;;;5010875;28;20454;-76
2022/02/23 11:23:17;;;;;;;4.23;2.10;;;10.30;99.90;;;;;;5010995;28;20452;-76
2022/02/23 11:25:48;;;;;;;9.00;3.13;;;10.20;99.90;;;;;;5010557;28;20478;-76
2022/02/23 11:28:22;;;;;;;7.23;2.20;;;10.00;99.90;;;;;;5010615;28;20445;-77
2022/02/23 11:30:51;;;;;;;4.80;2.43;;;10.10;99.90;;;;;;5010653;28;20484;-76
2022/02/23 11:33:23;;;;;;;6.43;2.17;;;10.00;99.90;;;;;;5010583;28;20465;-76
2022/02/23 11:35:53;;;;;;;9.93;2.60;;;10.10;99.90;;;;;;5010081;28;20472;-75
2022/02/23 11:38:27;;;;;;;4.33;2.23;;;10.10;99.90;;;;;;5010635;28;20533;-76
2022/02/23 11:40:56;;;;;;;5.50;2.27;;;10.20;99.90;;;;;;5010640;28;20454;-75
2022/02/23 11:43:29;;;;;;;8.57;2.00;;;10.40;99.90;;;;;;5010393;28;20453;-76
2022/02/23 11:49:12;;;;;;;5.83;2.37;;;10.60;99.90;;;;;;5010701;28;20430;-75
2022/02/23 11:51:41;;;;;;;4.93;2.60;;;10.60;99.90;;;;;;5010207;28;20488;-77
2022/02/23 11:54:08;;;;;;;5.60;2.53;;;10.70;99.90;;;;;;5010112;28;20549;-76
2022/02/23 11:56:53;;;;;;;5.40;2.67;;;10.50;99.90;;;;;;5010106;28;21062;-77
2022/02/23 11:59:56;;;;;;;7.07;2.47;;;10.60;99.90;;;;;;5010431;28;20552;-76
2022/02/23 12:02:30;;;;;;;8.77;3.20;;;10.50;99.90;;;;;;5007370;28;20448;-76
2022/02/23 12:04:57;;;;;;;7.47;2.97;;;10.50;99.90;;;;;;5009632;28;20470;-76
2022/02/23 12:07:24;;;;;;;6.33;3.00;;;10.50;99.90;;;;;;5009958;28;20967;-76
2022/02/23 12:10:27;;;;;;;7.93;3.37;;;10.60;99.90;;;;;;5010435;28;20450;-76
2022/02/23 12:12:54;;;;;;;8.30;3.33;;;10.60;99.90;;;;;;5010049;28;20444;-76
2022/02/23 12:15:26;;;;;;;6.70;2.67;;;10.60;99.90;;;;;;5009581;28;20544;-77
2022/02/23 12:17:58;;;;;;;5.90;2.87;;;10.60;99.90;;;;;;5010304;28;20855;-77
2022/02/23 12:20:51;;;;;;;6.90;2.70;;;10.70;99.90;;;;;;5009987;28;20468;-77
2022/02/23 12:23:33;;;;;;;9.17;2.57;;;10.80;99.90;;;;;;5009872;28;20453;-76
2022/02/23 12:26:21;;;;;;;5.77;2.17;;;10.80;99.90;;;;;;5010726;28;20469;-76
2022/02/23 12:28:51;;;;;;;4.60;2.03;;;10.80;99.90;;;;;;5014078;28;20448;-73
2022/02/23 12:31:19;;;;;;;6.27;2.50;;;10.80;99.90;;;;;;5014152;28;20519;-74
2022/02/23 12:33:50;;;;;;;7.40;2.60;;;10.80;99.90;;;;;;5014099;28;20438;-75
2022/02/23 12:36:40;;;;;;;4.80;2.20;;;10.70;99.90;;;;;;5013707;28;21021;-74
2022/02/23 12:39:11;;;;;;;5.83;2.00;;;10.60;99.90;;;;;;5009863;28;20560;-73
2022/02/23 12:41:39;;;;;;;5.67;2.33;;;10.40;99.90;;;;;;5007309;28;20457;-75
2022/02/23 12:44:08;;;;;;;12.43;2.50;;;10.30;99.90;;;;;;5009783;28;20533;-74
2022/02/23 12:46:37;;;;;;;7.63;2.83;;;10.10;99.90;;;;;;5015097;28;20541;-74
2022/02/23 12:49:06;;;;;;;5.70;2.70;;;9.90;99.90;;;;;;5009598;28;20448;-74
2022/02/23 12:51:36;;;;;;;5.20;3.50;;;9.80;99.90;;;;;;5009756;28;20925;-75
2022/02/23 12:54:05;;;;;;;4.87;2.20;;;9.80;99.90;;;;;;5010747;28;20457;-73
2022/02/23 12:56:35;;;;;;;9.40;3.23;;;9.90;99.90;;;;;;5008725;28;20469;-73
2022/02/23 12:59:04;;;;;;;3.80;1.90;;;10.00;99.90;;;;;;5013194;28;20448;-75
2022/02/23 13:01:32;;;;;;;4.40;2.23;;;10.20;99.90;;;;;;5010910;28;20442;-74
2022/02/23 13:04:01;;;;;;;5.43;1.77;;;10.20;99.90;;;;;;5013701;28;20445;-74